Time;durP1;ratioP1;P1;durP2;ratioP2;P2;SDS_P1;SDS_P2;PMS_P1;PMS_P2;Temp;Humidity;BMP_temperature;BMP_pressure;BME280_temperature;BME280_humidity;BME280_pressure;Samples;Min_cycle;Max_cycle;Signal;HPM_P1;HPM_P2
2022/07/13 00:01:43;;;;;;;0.03;0.03;;;;;;;24.21;60.82;102147.94;4992775;28;20019;-80
2022/07/13 00:04:09;;;;;;;0.10;0.10;;;;;;;24.19;60.77;102157.97;4991612;28;20045;-80
2022/07/13 00:06:35;;;;;;;0.10;0.10;;;;;;;24.16;60.80;102158.16;4990825;28;20073;-81
2022/07/13 00:09:02;;;;;;;0.08;0.08;;;;;;;24.16;60.33;102152.75;4992345;28;20054;-82
2022/07/13 00:11:28;;;;;;;0.20;0.20;;;;;;;24.15;60.46;102153.69;4992773;28;20034;-81
2022/07/13 00:13:54;;;;;;;0.10;0.10;;;;;;;24.12;60.41;102143.03;4993082;28;20405;-80
2022/07/13 00:16:21;;;;;;;0.00;0.00;;;;;;;24.09;60.53;102140.50;4991960;28;20065;-81
2022/07/13 00:18:47;;;;;;;1.33;0.55;;;;;;;24.07;60.55;102131.59;4993123;28;20125;-82
2022/07/13 00:21:13;;;;;;;0.20;0.20;;;;;;;24.05;60.52;102122.66;4993400;28;20022;-81
2022/07/13 00:23:39;;;;;;;0.00;0.00;;;;;;;23.99;61.00;102118.50;4993170;28;20182;-82
2022/07/13 00:26:06;;;;;;;0.00;0.00;;;;;;;23.98;61.20;102121.28;4994107;28;20105;-81
2022/07/13 00:28:33;;;;;;;0.10;0.10;;;;;;;23.94;61.08;102123.31;4994259;28;20455;-82
2022/07/13 00:30:59;;;;;;;0.38;0.38;;;;;;;23.92;61.28;102127.91;4993405;28;20113;-82
2022/07/13 00:33:25;;;;;;;0.40;0.20;;;;;;;23.90;60.94;102124.38;4996612;28;20026;-82
2022/07/13 00:35:51;;;;;;;0.00;0.00;;;;;;;23.90;60.87;102124.38;4992933;28;20038;-81
2022/07/13 00:38:18;;;;;;;0.00;0.00;;;;;;;23.85;61.03;102127.38;4992745;28;20030;-81
2022/07/13 00:40:44;;;;;;;0.10;0.10;;;;;;;23.82;60.98;102126.66;4995618;28;20029;-81
2022/07/13 00:43:10;;;;;;;0.00;0.00;;;;;;;23.77;61.21;102124.19;4997759;28;20038;-81
2022/07/13 00:45:36;;;;;;;0.10;0.10;;;;;;;23.74;60.98;102119.84;4991662;28;20022;-81
2022/07/13 00:48:02;;;;;;;1.85;1.15;;;;;;;23.71;61.38;102119.13;4994437;28;20054;-81
2022/07/13 00:50:29;;;;;;;0.90;0.22;;;;;;;23.67;60.91;102109.44;4993424;28;20029;-81
2022/07/13 00:52:55;;;;;;;0.10;0.10;;;;;;;23.66;61.22;102121.22;5002295;28;20031;-81
2022/07/13 00:55:21;;;;;;;0.00;0.00;;;;;;;23.63;61.18;102118.66;4990194;28;20030;-80
2022/07/13 00:57:48;;;;;;;0.05;0.05;;;;;;;23.60;61.35;102119.72;4992333;28;20081;-81
2022/07/13 01:00:15;;;;;;;0.00;0.00;;;;;;;23.59;61.44;102108.03;4993412;28;20034;-81
2022/07/13 01:02:45;;;;;;;0.35;0.35;;;;;;;23.58;61.50;102111.69;4996410;28;20547;-81
2022/07/13 01:05:13;;;;;;;0.00;0.00;;;;;;;23.57;61.53;102114.50;4988794;28;20082;-81
2022/07/13 01:07:40;;;;;;;0.10;0.10;;;;;;;23.56;61.33;102093.78;4991116;28;20035;-81
2022/07/13 01:10:09;;;;;;;0.00;0.00;;;;;;;23.56;61.62;102100.09;4993010;28;20404;-79
2022/07/13 01:12:36;;;;;;;0.10;0.10;;;;;;;23.56;61.62;102089.28;4990881;28;20034;-80
2022/07/13 01:15:04;;;;;;;0.20;0.20;;;;;;;23.60;62.03;102084.53;4992153;28;20487;-80
2022/07/13 01:17:32;;;;;;;0.10;0.10;;;;;;;23.64;61.77;102080.72;4989148;28;20034;-79
2022/07/13 01:19:58;;;;;;;0.00;0.00;;;;;;;23.66;61.52;102086.06;4994882;28;20026;-80
2022/07/13 01:22:31;;;;;;;0.00;0.00;;;;;;;23.67;61.53;102088.66;4995394;28;20029;-81
2022/07/13 01:24:58;;;;;;;0.10;0.10;;;;;;;23.69;61.37;102094.88;4991813;28;20039;-81
2022/07/13 01:27:24;;;;;;;0.20;0.20;;;;;;;23.71;61.37;102087.56;4993266;28;20030;-80
2022/07/13 01:29:51;;;;;;;1.10;0.98;;;;;;;23.77;61.29;102080.03;4995095;28;20030;-81
2022/07/13 01:32:17;;;;;;;0.00;0.00;;;;;;;23.80;61.47;102085.28;5003816;28;20046;-81
2022/07/13 01:34:43;;;;;;;0.20;0.20;;;;;;;23.79;61.10;102073.59;4995080;28;20038;-80
2022/07/13 01:37:10;;;;;;;0.00;0.00;;;;;;;23.81;61.34;102077.06;4994637;28;20046;-80
2022/07/13 01:39:36;;;;;;;0.00;0.00;;;;;;;23.82;61.24;102075.25;4997397;28;20240;-79
2022/07/13 01:42:02;;;;;;;0.45;0.45;;;;;;;23.83;61.54;102079.69;4996892;28;20066;-82
2022/07/13 01:44:29;;;;;;;0.00;0.00;;;;;;;23.84;61.54;102079.59;4993989;28;20034;-81
2022/07/13 01:46:55;;;;;;;0.20;0.20;;;;;;;23.86;61.91;102079.50;4995114;28;20022;-80
2022/07/13 01:49:21;;;;;;;0.00;0.00;;;;;;;23.86;61.58;102080.41;4995375;28;20030;-80
2022/07/13 01:51:47;;;;;;;0.40;0.40;;;;;;;23.87;61.03;102075.84;5009147;28;20121;-81
2022/07/13 01:54:13;;;;;;;0.17;0.17;;;;;;;23.88;60.92;102073.03;4994988;28;20034;-81
2022/07/13 01:56:39;;;;;;;0.17;0.17;;;;;;;23.89;61.10;102063.97;4994926;28;20038;-81
2022/07/13 01:59:06;;;;;;;0.10;0.10;;;;;;;23.90;61.01;102064.84;4995391;28;20026;-81
2022/07/13 02:01:32;;;;;;;0.10;0.10;;;;;;;23.92;61.08;102062.09;4990104;28;20035;-82
2022/07/13 02:03:58;;;;;;;0.10;0.10;;;;;;;23.92;60.97;102057.53;4991976;28;20053;-81
2022/07/13 02:06:24;;;;;;;0.05;0.03;;;;;;;23.93;60.99;102063.84;4993923;28;20403;-82
2022/07/13 02:08:50;;;;;;;0.10;0.10;;;;;;;23.94;60.90;102060.16;4995579;28;20037;-81
2022/07/13 02:11:18;;;;;;;0.10;0.10;;;;;;;23.94;60.70;102060.16;4995635;28;20204;-82
2022/07/13 02:13:45;;;;;;;0.00;0.00;;;;;;;23.94;60.83;102052.94;4995700;28;20061;-82
2022/07/13 02:16:14;;;;;;;0.00;0.00;;;;;;;23.96;60.73;102059.09;4995056;28;20129;-82
2022/07/13 02:18:41;;;;;;;0.10;0.10;;;;;;;23.97;60.71;102054.56;4994611;28;20061;-82
2022/07/13 02:21:07;;;;;;;0.10;0.10;;;;;;;23.97;60.24;102043.75;4994587;28;20030;-81
2022/07/13 02:23:33;;;;;;;0.00;0.00;;;;;;;23.97;60.27;102036.50;4995191;28;20038;-80
2022/07/13 02:25:59;;;;;;;0.28;0.25;;;;;;;23.98;60.41;102040.09;4993210;28;20042;-80
2022/07/13 02:28:26;;;;;;;0.08;0.08;;;;;;;23.98;60.23;102035.53;4997673;28;20034;-80
2022/07/13 02:30:52;;;;;;;0.20;0.20;;;;;;;23.97;60.60;102035.63;4995288;28;20033;-80
2022/07/13 02:33:18;;;;;;;0.15;0.15;;;;;;;23.99;60.50;102039.09;4997547;28;20030;-80
2022/07/13 02:35:44;;;;;;;0.10;0.10;;;;;;;23.98;60.63;102046.38;4992416;28;20030;-81
2022/07/13 02:38:10;;;;;;;0.00;0.00;;;;;;;23.99;60.35;102041.81;4994561;28;20034;-82
2022/07/13 02:40:36;;;;;;;0.00;0.00;;;;;;;23.98;60.20;102035.53;5005189;28;20049;-82
2022/07/13 02:43:02;;;;;;;0.00;0.00;;;;;;;24.00;60.20;102040.84;4996528;28;20105;-82
2022/07/13 02:45:28;;;;;;;0.00;0.00;;;;;;;24.00;60.37;102038.16;4994984;28;20037;-82
2022/07/13 02:47:55;;;;;;;0.43;0.43;;;;;;;24.00;60.63;102035.44;4994124;28;20033;-82
2022/07/13 02:50:21;;;;;;;1.27;0.82;;;;;;;23.99;60.20;102037.28;4995640;28;20037;-81
2022/07/13 02:52:47;;;;;;;0.10;0.10;;;;;;;23.98;60.23;102030.13;4993760;28;20034;-81
2022/07/13 02:55:13;;;;;;;0.10;0.10;;;;;;;23.98;60.00;102031.97;4993879;28;20385;-81
2022/07/13 02:57:39;;;;;;;0.57;0.57;;;;;;;23.96;60.31;102031.16;4994578;28;20046;-82
2022/07/13 03:00:07;;;;;;;0.10;0.10;;;;;;;23.97;60.14;102024.81;4995548;28;20038;-82
2022/07/13 03:02:33;;;;;;;0.20;0.20;;;;;;;23.96;60.35;102017.63;4995035;28;20038;-81
2022/07/13 03:04:59;;;;;;;0.00;0.00;;;;;;;23.95;60.08;102019.50;4993743;28;20511;-82
2022/07/13 03:07:25;;;;;;;0.00;0.00;;;;;;;23.95;59.96;102021.31;4994505;28;20038;-82
2022/07/13 03:09:52;;;;;;;0.15;0.15;;;;;;;23.95;59.76;102024.00;4994401;28;20116;-82
2022/07/13 03:12:19;;;;;;;0.17;0.17;;;;;;;23.93;59.73;102021.41;4993978;28;20065;-81
2022/07/13 03:14:45;;;;;;;0.00;0.00;;;;;;;23.93;59.81;102020.53;5000051;28;20037;-81
2022/07/13 03:17:12;;;;;;;0.00;0.00;;;;;;;23.93;59.86;102017.84;4995091;28;20030;-82
2022/07/13 03:19:38;;;;;;;0.17;0.17;;;;;;;23.95;59.85;102013.19;4994915;28;20523;-82
2022/07/13 03:22:04;;;;;;;0.10;0.10;;;;;;;23.96;59.85;102020.34;4996010;28;20104;-82
2022/07/13 03:24:31;;;;;;;0.17;0.17;;;;;;;23.96;60.00;102020.34;4993501;28;20037;-82
2022/07/13 03:26:57;;;;;;;0.45;0.45;;;;;;;23.94;60.17;102009.63;4993604;28;20054;-82
2022/07/13 03:29:23;;;;;;;1.00;0.90;;;;;;;23.92;60.28;102008.81;4994088;28;20745;-82
2022/07/13 03:31:49;;;;;;;0.40;0.40;;;;;;;23.92;60.27;102014.22;4994387;28;20045;-83
2022/07/13 03:34:16;;;;;;;0.10;0.10;;;;;;;23.90;60.33;102005.28;4998742;28;20053;-82
2022/07/13 03:36:43;;;;;;;1.15;1.05;;;;;;;23.89;60.29;101998.16;4994603;28;21015;-82
2022/07/13 03:39:09;;;;;;;0.85;0.85;;;;;;;23.88;60.09;101999.13;4994270;28;20037;-82
2022/07/13 03:41:35;;;;;;;0.10;0.10;;;;;;;23.86;60.13;101993.78;4997244;28;20049;-82
2022/07/13 03:44:01;;;;;;;0.20;0.20;;;;;;;23.87;60.24;102000.94;4993723;28;20153;-81
2022/07/13 03:46:27;;;;;;;0.52;0.52;;;;;;;23.88;60.09;101999.97;4991660;28;20460;-81
2022/07/13 03:48:53;;;;;;;0.08;0.08;;;;;;;23.88;60.16;101999.13;4991905;28;20030;-81
2022/07/13 03:51:19;;;;;;;0.10;0.10;;;;;;;23.87;60.01;101995.50;4991468;28;20501;-81
2022/07/13 03:53:46;;;;;;;0.40;0.40;;;;;;;23.87;59.71;102006.34;4990995;28;20026;-82
2022/07/13 03:56:12;;;;;;;0.30;0.30;;;;;;;23.89;59.37;102003.56;4992722;28;20102;-81
2022/07/13 03:58:38;;;;;;;0.28;0.28;;;;;;;23.86;58.65;101998.31;4992033;28;20116;-81
2022/07/13 04:01:05;;;;;;;0.50;0.50;;;;;;;23.90;58.79;102003.47;4990989;28;20459;-82
2022/07/13 04:03:31;;;;;;;0.05;0.05;;;;;;;23.92;58.40;102003.41;4991510;28;20026;-82
2022/07/13 04:05:57;;;;;;;0.10;0.10;;;;;;;23.96;58.43;102012.22;4991280;28;20042;-82
2022/07/13 04:08:23;;;;;;;0.45;0.45;;;;;;;23.96;57.98;101998.69;4992271;28;20030;-81
2022/07/13 04:10:50;;;;;;;0.17;0.17;;;;;;;23.95;57.29;101996.94;5000644;28;20061;-82
2022/07/13 04:13:16;;;;;;;0.85;0.47;;;;;;;23.99;57.65;101995.78;4990914;28;20073;-81
2022/07/13 04:15:42;;;;;;;0.00;0.00;;;;;;;23.98;57.22;101996.78;4991073;28;20567;-81
2022/07/13 04:18:08;;;;;;;0.00;0.00;;;;;;;24.01;57.49;102002.00;4991611;28;20492;-80
2022/07/13 04:20:34;;;;;;;0.10;0.10;;;;;;;24.04;57.65;101991.00;4991429;28;20609;-80
2022/07/13 04:23:00;;;;;;;0.00;0.00;;;;;;;24.07;57.56;101996.22;4994794;28;20054;-81
2022/07/13 04:25:27;;;;;;;0.00;0.00;;;;;;;24.08;57.04;102002.53;5000101;28;20492;-80
2022/07/13 04:27:53;;;;;;;0.20;0.20;;;;;;;24.14;57.36;101991.31;4994768;28;20065;-81
2022/07/13 04:30:19;;;;;;;0.00;0.00;;;;;;;24.15;56.89;101993.94;4996149;28;20144;-80
2022/07/13 04:32:45;;;;;;;0.10;0.10;;;;;;;24.18;57.16;101996.44;4989692;28;20031;-81
2022/07/13 04:35:11;;;;;;;0.10;0.10;;;;;;;24.21;56.48;101992.69;4990964;28;20033;-81
2022/07/13 04:37:37;;;;;;;0.10;0.10;;;;;;;24.23;56.50;101990.78;4994891;28;20042;-81
2022/07/13 04:40:04;;;;;;;0.45;0.45;;;;;;;24.24;56.16;101987.09;4996145;28;20026;-80
2022/07/13 04:42:30;;;;;;;0.20;0.20;;;;;;;24.29;56.75;101992.22;4990270;28;20489;-81
2022/07/13 04:44:56;;;;;;;0.03;0.03;;;;;;;24.33;56.24;101999.22;4985976;28;20085;-80
2022/07/13 04:47:22;;;;;;;0.70;0.52;;;;;;;24.34;56.15;102003.69;4991597;28;20034;-80
2022/07/13 04:49:48;;;;;;;0.00;0.00;;;;;;;24.37;56.36;101993.53;4989519;28;20034;-81
2022/07/13 04:52:14;;;;;;;0.10;0.10;;;;;;;24.42;56.50;101985.09;4990249;28;20126;-81
2022/07/13 04:54:41;;;;;;;0.10;0.10;;;;;;;24.43;56.18;101997.69;4994128;28;20030;-81
2022/07/13 04:57:07;;;;;;;0.00;0.00;;;;;;;24.46;56.44;101989.41;4995281;28;20034;-81
2022/07/13 04:59:33;;;;;;;0.10;0.10;;;;;;;24.48;56.37;101990.16;4994901;28;20035;-80
2022/07/13 05:01:59;;;;;;;0.70;0.70;;;;;;;24.52;56.75;101991.72;4993560;28;20706;-80
2022/07/13 05:04:27;;;;;;;0.10;0.10;;;;;;;24.53;56.87;101990.75;4995077;28;20038;-80
2022/07/13 05:06:54;;;;;;;0.22;0.22;;;;;;;24.52;56.52;101996.25;4995419;28;20038;-80
2022/07/13 05:09:20;;;;;;;0.10;0.10;;;;;;;24.53;56.60;101998.88;4993396;28;20033;-80
2022/07/13 05:11:46;;;;;;;0.05;0.05;;;;;;;24.55;56.86;101996.94;4993437;28;20037;-80
2022/07/13 05:14:12;;;;;;;0.68;0.30;;;;;;;24.55;56.76;101986.13;4992826;28;20022;-82
2022/07/13 05:16:38;;;;;;;0.38;0.32;;;;;;;24.60;56.87;101993.06;4993190;28;20499;-80
2022/07/13 05:19:06;;;;;;;0.05;0.05;;;;;;;24.64;56.65;101989.22;4991040;28;20032;-80
2022/07/13 05:21:32;;;;;;;0.00;0.00;;;;;;;24.68;56.69;101990.81;4991352;28;20023;-80
2022/07/13 05:23:58;;;;;;;0.47;0.47;;;;;;;24.73;56.60;101993.25;4994527;28;20492;-80
2022/07/13 05:26:24;;;;;;;0.10;0.10;;;;;;;24.80;56.52;101984.63;4993870;28;20066;-80
2022/07/13 05:28:51;;;;;;;0.80;0.52;;;;;;;24.85;56.22;101990.63;4996783;28;20038;-79
2022/07/13 05:31:17;;;;;;;0.00;0.00;;;;;;;24.86;55.88;101981.53;4992533;28;20419;-80
2022/07/13 05:33:43;;;;;;;0.10;0.10;;;;;;;24.89;55.01;101977.75;4994232;28;20122;-78
2022/07/13 05:36:10;;;;;;;0.55;0.55;;;;;;;24.99;54.37;101978.06;4986174;28;20026;-80
2022/07/13 05:38:36;;;;;;;0.10;0.10;;;;;;;25.03;52.97;101985.00;4995852;28;20085;-80
2022/07/13 05:41:03;;;;;;;0.08;0.08;;;;;;;25.04;52.89;101993.03;4993349;28;20034;-79
2022/07/13 05:43:29;;;;;;;0.10;0.10;;;;;;;25.15;54.05;101997.78;4991944;28;20046;-80
2022/07/13 05:45:56;;;;;;;0.45;0.45;;;;;;;25.00;51.28;102010.50;4993444;28;20084;-81
2022/07/13 05:48:22;;;;;;;0.57;0.55;;;;;;;25.12;52.42;102007.97;4994925;28;20041;-80
2022/07/13 05:50:48;;;;;;;0.03;0.03;;;;;;;25.05;51.90;102004.78;4994672;28;20654;-81
2022/07/13 05:53:14;;;;;;;0.32;0.28;;;;;;;25.10;52.07;102013.50;4995323;28;20675;-80
2022/07/13 05:55:40;;;;;;;0.10;0.10;;;;;;;25.15;50.92;102005.06;4989966;28;20632;-81
2022/07/13 05:58:07;;;;;;;0.10;0.10;;;;;;;25.24;51.68;102004.47;4991493;28;20030;-81
2022/07/13 06:00:33;;;;;;;0.10;0.10;;;;;;;25.28;51.48;102010.56;4990005;28;20031;-85
2022/07/13 06:02:59;;;;;;;0.93;0.77;;;;;;;25.27;51.80;102014.25;4990201;28;20401;-83
2022/07/13 06:05:25;;;;;;;0.15;0.15;;;;;;;25.34;51.75;102012.91;4991808;28;20497;-81
2022/07/13 06:07:51;;;;;;;0.08;0.08;;;;;;;25.29;51.68;102010.47;4993424;28;20400;-81
2022/07/13 06:10:17;;;;;;;3.33;0.38;;;;;;;25.34;51.49;102015.59;4992380;28;20059;-81
2022/07/13 06:12:43;;;;;;;1.85;0.85;;;;;;;25.50;52.11;102010.97;4986327;28;20752;-81
2022/07/13 06:15:09;;;;;;;0.10;0.10;;;;;;;25.56;51.77;102009.69;4992881;28;20053;-81
2022/07/13 06:17:36;;;;;;;0.30;0.30;;;;;;;25.60;51.60;101999.53;4993369;28;20030;-81
2022/07/13 06:20:02;;;;;;;0.10;0.10;;;;;;;25.62;51.04;102001.16;4993518;28;20026;-82
2022/07/13 06:22:28;;;;;;;0.10;0.10;;;;;;;25.59;51.00;102003.19;4991611;28;20102;-81
2022/07/13 06:24:54;;;;;;;0.90;0.90;;;;;;;25.59;51.39;102005.91;4993212;28;20057;-82
2022/07/13 06:27:20;;;;;;;0.70;0.70;;;;;;;25.74;51.28;102004.03;4993454;28;20038;-81
2022/07/13 06:29:47;;;;;;;0.10;0.10;;;;;;;25.75;51.62;102008.50;4994166;28;20113;-81
2022/07/13 06:32:13;;;;;;;0.05;0.05;;;;;;;25.75;51.39;102009.34;4991732;28;20027;-81
2022/07/13 06:34:39;;;;;;;0.10;0.10;;;;;;;25.63;51.84;102018.31;4993272;28;20504;-81
2022/07/13 06:37:06;;;;;;;0.52;0.52;;;;;;;25.62;51.71;102013.84;4993675;28;20485;-81
2022/07/13 06:39:33;;;;;;;0.10;0.10;;;;;;;25.67;51.71;102014.41;4994085;28;20026;-81
2022/07/13 06:41:59;;;;;;;0.10;0.10;;;;;;;25.80;51.74;102011.78;4991656;28;20386;-81
2022/07/13 06:44:25;;;;;;;0.08;0.08;;;;;;;25.84;51.71;102019.63;4991673;28;20026;-81
2022/07/13 06:46:52;;;;;;;0.20;0.20;;;;;;;25.88;51.75;102008.53;4993558;28;20031;-80
2022/07/13 06:49:18;;;;;;;0.10;0.10;;;;;;;25.92;52.06;102012.78;4993504;28;20089;-81
2022/07/13 06:51:44;;;;;;;0.45;0.35;;;;;;;26.03;51.66;102003.94;4991685;28;20034;-80
2022/07/13 06:54:10;;;;;;;0.30;0.30;;;;;;;26.06;51.77;102012.78;4992003;28;20030;-81
2022/07/13 06:56:36;;;;;;;0.10;0.10;;;;;;;26.07;51.32;102013.63;4993517;28;20042;-80
2022/07/13 06:59:02;;;;;;;2.75;0.43;;;;;;;26.13;51.11;102016.81;4994121;28;20027;-79
2022/07/13 07:01:29;;;;;;;0.10;0.10;;;;;;;26.12;51.36;102023.22;4992227;28;20037;-80
2022/07/13 07:03:55;;;;;;;0.00;0.00;;;;;;;26.15;51.39;102017.56;4992418;28;20084;-80
2022/07/13 07:06:21;;;;;;;0.57;0.57;;;;;;;26.24;50.75;102016.06;4993171;28;20392;-80
2022/07/13 07:08:49;;;;;;;0.40;0.40;;;;;;;26.20;50.42;102011.84;4994570;28;20475;-80
2022/07/13 07:11:15;;;;;;;0.30;0.30;;;;;;;26.30;50.96;102009.38;4994295;28;20026;-81
2022/07/13 07:13:41;;;;;;;0.10;0.10;;;;;;;26.38;51.06;102017.88;4992462;28;20377;-81
2022/07/13 07:16:07;;;;;;;0.43;0.43;;;;;;;26.38;49.86;102026.03;4993423;28;20101;-80
2022/07/13 07:18:33;;;;;;;0.13;0.13;;;;;;;26.52;50.17;102024.16;4993089;28;20034;-81
2022/07/13 07:21:00;;;;;;;0.10;0.10;;;;;;;26.45;50.20;102018.31;4993535;28;20033;-81
2022/07/13 07:23:26;;;;;;;0.10;0.10;;;;;;;26.51;50.17;102020.59;4992099;28;20037;-80
2022/07/13 07:25:52;;;;;;;0.10;0.10;;;;;;;26.55;50.07;102013.09;4990041;28;20041;-80
2022/07/13 07:28:18;;;;;;;0.20;0.20;;;;;;;26.48;49.75;102021.69;4994466;28;20030;-81
2022/07/13 07:30:45;;;;;;;0.20;0.20;;;;;;;26.56;50.02;102025.72;4994473;28;20374;-81
2022/07/13 07:33:11;;;;;;;0.10;0.10;;;;;;;26.46;48.79;102020.91;4993164;28;20105;-81
2022/07/13 07:35:37;;;;;;;0.10;0.10;;;;;;;26.60;49.02;102010.94;4990857;28;20146;-81
2022/07/13 07:38:03;;;;;;;0.10;0.10;;;;;;;26.71;48.80;102002.03;4990953;28;20069;-81
2022/07/13 07:40:29;;;;;;;0.22;0.22;;;;;;;26.68;47.48;102007.66;4992668;28;20076;-81
2022/07/13 07:42:55;;;;;;;0.10;0.10;;;;;;;26.77;47.83;102005.22;4992575;28;20026;-80
2022/07/13 07:45:21;;;;;;;0.20;0.20;;;;;;;26.97;48.10;102000.22;4991087;28;20045;-79
2022/07/13 07:47:47;;;;;;;0.20;0.20;;;;;;;27.01;46.77;102006.31;4986546;28;20052;-80
2022/07/13 07:50:14;;;;;;;0.93;0.93;;;;;;;27.28;46.86;102000.72;4992017;28;20026;-80
2022/07/13 07:52:40;;;;;;;0.03;0.03;;;;;;;27.34;47.17;101994.81;4991623;28;20081;-81
2022/07/13 07:55:06;;;;;;;0.17;0.17;;;;;;;27.58;46.94;102002.19;4992258;28;20030;-81
2022/07/13 07:57:45;;;;;;;0.43;0.43;;;;;;;27.76;46.48;101997.22;4990465;28;20035;-81
2022/07/13 08:00:14;;;;;;;0.32;0.32;;;;;;;27.79;45.52;101998.84;4989206;28;20084;-80
2022/07/13 08:02:43;;;;;;;0.17;0.17;;;;;;;27.86;44.03;101998.25;4991322;28;20031;-81
2022/07/13 08:05:09;;;;;;;0.28;0.28;;;;;;;27.99;45.44;102002.75;4992140;28;20034;-80
2022/07/13 08:07:42;;;;;;;0.10;0.10;;;;;;;28.11;45.58;102010.03;4992513;28;20027;-79
2022/07/13 08:10:09;;;;;;;0.15;0.15;;;;;;;28.00;44.66;102005.41;4990567;28;20026;-81
2022/07/13 08:12:35;;;;;;;0.10;0.10;;;;;;;28.18;44.76;102015.91;4989300;28;20572;-81
2022/07/13 08:15:02;;;;;;;0.00;0.00;;;;;;;28.18;44.67;102016.75;4990466;28;20022;-81
2022/07/13 08:17:28;;;;;;;0.10;0.10;;;;;;;28.19;43.91;102004.03;4991674;28;20022;-81
2022/07/13 08:19:54;;;;;;;0.10;0.10;;;;;;;28.15;43.20;102006.13;4994013;28;20496;-81
2022/07/13 08:22:21;;;;;;;0.00;0.00;;;;;;;28.15;44.40;102005.22;4994598;28;20512;-81
2022/07/13 08:24:47;;;;;;;0.10;0.10;;;;;;;28.12;44.35;102008.19;4994564;28;20129;-81
2022/07/13 08:27:13;;;;;;;0.10;0.10;;;;;;;28.17;43.17;102009.56;4993420;28;20030;-82
2022/07/13 08:29:40;;;;;;;0.10;0.10;;;;;;;28.17;42.88;102014.16;4998425;28;20106;-82
2022/07/13 08:32:06;;;;;;;0.00;0.00;;;;;;;28.20;42.62;102009.34;4998479;28;20030;-81
2022/07/13 08:40:09;;;;;;;0.05;0.05;;;;;;;28.18;42.93;102019.50;4999535;28;20125;-82
2022/07/13 08:42:36;;;;;;;0.25;0.25;;;;;;;28.13;42.22;102023.56;4998874;28;20492;-81
2022/07/13 08:45:03;;;;;;;0.10;0.10;;;;;;;28.05;42.16;102008.66;4998343;28;20034;-82
2022/07/13 08:47:30;;;;;;;0.20;0.20;;;;;;;28.09;42.19;102014.75;4997295;28;20034;-82
2022/07/13 08:50:02;;;;;;;0.30;0.30;;;;;;;28.14;42.17;102020.72;4999489;28;20029;-82
2022/07/13 08:52:30;;;;;;;0.10;0.10;;;;;;;28.14;42.07;102008.94;4998201;28;20463;-80
2022/07/13 08:55:05;;;;;;;2.65;0.90;;;;;;;28.21;41.93;102023.84;4998223;28;20361;-81
2022/07/13 08:57:34;;;;;;;0.85;0.85;;;;;;;28.18;40.69;102027.66;4995899;28;20073;-80
2022/07/13 09:00:04;;;;;;;0.30;0.30;;;;;;;28.28;39.52;102026.97;4998014;28;20030;-82
2022/07/13 09:02:30;;;;;;;0.15;0.15;;;;;;;28.30;40.38;102019.53;4997816;28;20041;-81
2022/07/13 09:04:57;;;;;;;0.10;0.10;;;;;;;28.35;40.17;102028.22;4998330;28;20400;-82
2022/07/13 09:07:23;;;;;;;0.10;0.10;;;;;;;28.40;40.08;102021.44;4994418;28;20037;-81
2022/07/13 09:09:56;;;;;;;0.10;0.10;;;;;;;28.56;40.13;102015.66;4997633;28;20029;-81
2022/07/13 09:12:24;;;;;;;0.20;0.20;;;;;;;28.67;40.11;102012.09;4997566;28;20030;-82
2022/07/13 09:14:54;;;;;;;0.10;0.10;;;;;;;28.70;40.01;102008.28;4997989;28;20026;-82
2022/07/13 09:30:42;;;;;;;0.13;0.13;;;;;;;28.82;39.18;102006.44;5090261;28;20336;-79
2022/07/13 09:33:09;;;;;;;0.30;0.30;;;;;;;28.85;39.53;102015.25;5090419;28;20111;-78
2022/07/13 09:35:51;;;;;;;0.00;0.00;;;;;;;29.07;38.82;102029.03;5088175;28;20052;-78
2022/07/13 09:46:29;;;;;;;0.00;0.00;;;;;;;28.89;36.93;102021.31;5108957;27;20416;-79
2022/07/13 09:48:56;;;;;;;0.00;0.00;;;;;;;29.08;37.35;102022.56;5109758;28;20016;-78
2022/07/13 09:51:29;;;;;;;0.00;0.00;;;;;;;29.12;37.46;102015.88;5110404;28;20027;-78
2022/07/13 09:53:59;;;;;;;0.10;0.10;;;;;;;29.25;36.89;102013.88;5111262;28;20028;-79
2022/07/13 09:56:28;;;;;;;0.10;0.10;;;;;;;29.35;36.92;102017.63;5103266;28;20031;-78
2022/07/13 09:58:55;;;;;;;0.15;0.15;;;;;;;29.40;36.26;102035.47;5110195;28;20024;-78
2022/07/13 10:01:22;;;;;;;0.10;0.10;;;;;;;29.49;36.25;102024.69;5104043;28;20039;-79
2022/07/13 10:03:49;;;;;;;0.10;0.10;;;;;;;29.54;36.12;102010.66;5111198;28;20020;-77
2022/07/13 10:06:16;;;;;;;0.20;0.20;;;;;;;29.90;36.62;102025.00;5110559;28;20051;-79
2022/07/13 10:08:43;;;;;;;0.05;0.05;;;;;;;29.91;35.54;102024.00;5111466;28;20038;-79
2022/07/13 10:11:09;;;;;;;0.45;0.45;;;;;;;30.05;35.55;102030.19;5108119;28;20028;-78
2022/07/13 10:13:37;;;;;;;0.10;0.10;;;;;;;30.27;35.64;102030.06;5109241;28;20118;-79
2022/07/13 10:16:04;;;;;;;1.63;1.20;;;;;;;30.39;35.81;102028.13;5110256;27;20124;-79
2022/07/13 10:18:35;;;;;;;0.63;0.63;;;;;;;30.49;35.64;102029.13;5110607;28;20122;-79
2022/07/13 10:23:40;;;;;;;0.20;0.20;;;;;;;30.58;35.20;102027.47;5125489;27;20410;-78
2022/07/13 10:26:24;;;;;;;0.45;0.45;;;;;;;30.55;34.65;102033.19;5125259;28;20426;-78
2022/07/13 10:29:09;;;;;;;0.10;0.10;;;;;;;30.59;35.19;102053.78;5131016;27;20102;-79
2022/07/13 10:31:36;;;;;;;0.30;0.30;;;;;;;30.66;35.92;102045.94;5115138;27;20022;-78
2022/07/13 10:34:04;;;;;;;2.03;1.27;;;;;;;30.51;35.26;102056.34;5117840;28;20031;-79
2022/07/13 10:36:51;;;;;;;0.10;0.10;;;;;;;30.65;35.58;102050.50;5128836;28;20096;-78
2022/07/13 10:39:18;;;;;;;0.35;0.35;;;;;;;30.47;36.70;102049.38;5130462;27;20034;-79
2022/07/13 10:42:07;;;;;;;0.15;0.13;;;;;;;30.45;38.08;102054.09;5115998;27;20055;-79
2022/07/13 10:44:42;;;;;;;0.10;0.10;;;;;;;30.49;37.86;102069.25;5113085;28;20047;-79
2022/07/13 10:47:11;;;;;;;0.00;0.00;;;;;;;30.27;38.14;102065.63;5123523;27;20049;-78
2022/07/13 10:49:44;;;;;;;0.10;0.10;;;;;;;30.25;37.86;102059.41;5118170;27;20038;-79
2022/07/13 10:57:42;;;;;;;0.22;0.22;;;;;;;29.98;38.61;102074.41;5112638;27;20331;-77
2022/07/13 11:00:28;;;;;;;0.57;0.50;;;;;;;29.98;38.61;102074.41;5106829;28;20130;-79
2022/07/13 11:03:12;;;;;;;0.10;0.10;;;;;;;30.09;38.39;102078.09;5105539;28;20027;-78
2022/07/13 11:06:15;;;;;;;0.15;0.15;;;;;;;30.38;38.51;102080.22;5091584;28;20028;-78
2022/07/13 11:08:42;;;;;;;0.10;0.10;;;;;;;30.51;38.93;102080.94;5087648;28;20067;-78
2022/07/13 11:11:14;;;;;;;0.00;0.00;;;;;;;30.64;38.47;102069.81;5075801;28;20033;-79
2022/07/13 11:13:44;;;;;;;0.25;0.25;;;;;;;30.71;37.76;102075.63;5089230;28;20024;-78
2022/07/13 11:16:12;;;;;;;0.70;0.70;;;;;;;30.84;37.70;102078.16;5090807;28;20111;-79
2022/07/13 11:18:40;;;;;;;0.15;0.15;;;;;;;30.89;36.52;102084.94;5090019;28;20560;-79
2022/07/13 11:29:28;;;;;;;0.10;0.10;;;;;;;31.21;35.38;102089.47;5069712;28;20360;-78
2022/07/13 11:31:56;;;;;;;0.22;0.20;;;;;;;31.36;35.95;102094.59;5068406;28;20036;-77
2022/07/13 11:34:23;;;;;;;0.20;0.20;;;;;;;31.32;35.70;102085.78;5063661;28;20029;-78
2022/07/13 11:36:51;;;;;;;0.30;0.30;;;;;;;31.41;35.85;102095.06;5061128;28;20052;-79
2022/07/13 11:39:35;;;;;;;0.00;0.00;;;;;;;31.41;35.28;102095.91;5065986;28;20528;-78
2022/07/13 11:42:05;;;;;;;0.10;0.10;;;;;;;31.41;35.66;102100.53;5063020;28;20033;-77
2022/07/13 11:44:32;;;;;;;0.10;0.10;;;;;;;31.58;35.54;102091.66;5064273;28;20026;-77
2022/07/13 11:47:02;;;;;;;0.10;0.10;;;;;;;31.66;36.00;102084.66;5069505;28;20403;-78
2022/07/13 11:49:36;;;;;;;0.17;0.17;;;;;;;31.72;35.77;102081.34;5068597;28;20528;-79
2022/07/13 11:52:02;;;;;;;0.30;0.30;;;;;;;31.80;35.86;102084.25;5061661;28;20467;-79
2022/07/13 11:54:28;;;;;;;0.20;0.20;;;;;;;31.68;35.33;102102.69;5066704;28;20403;-80
2022/07/13 11:56:57;;;;;;;0.32;0.32;;;;;;;31.74;35.16;102098.50;5070666;28;20033;-78
2022/07/13 12:02:15;;;;;;;0.40;0.40;;;;;;;31.36;35.17;102106.41;5066028;28;20392;-79
2022/07/13 12:04:42;;;;;;;0.10;0.10;;;;;;;31.32;35.71;102115.91;5063851;28;20032;-78
2022/07/13 12:07:11;;;;;;;0.30;0.30;;;;;;;31.20;36.14;102109.63;5070711;28;20032;-78
2022/07/13 12:09:45;;;;;;;0.10;0.10;;;;;;;31.00;36.20;102113.25;5070442;28;20037;-79
2022/07/13 12:12:11;;;;;;;0.55;0.55;;;;;;;30.80;36.04;102122.19;5069188;28;20128;-79